Terminal Aerodrome Forecast
Issued by NWS Chicago, IL

Home | Current Version | Previous Version | Graphics & Text | Print | Product List | Glossary On
Versions: 1 2 3 4 5 6 7 8 9 10 11 12 13 14 15 16 17 18 19 20 21 22 23 24 25
358
FTUS43 KLOT 081138
TAFRFD
TAF
KRFD 081138Z 0812/0912 27015G25KT P6SM -SHSN BKN025
     FM081400 28017G27KT P6SM -SHSN OVC025
      TEMPO 0818/0822 3SM -SHSN OVC020
     FM090100 29012G18KT P6SM -SN BKN020=

USA.gov is the U.S. government's official web portal to all federal, state and local government web resources and services.